WetterOnline ( https://www.wetteronline.at )

Wetter aktuell Hoyerswerda

Aktuelles Wetter: Cottbus (70m)

6-stündlich | Neueste Meldungen
Ortszeit Temperatur Wetter
Do, 28.05. 2:00 16.0° C bedeckt
Mi, 27.05. 20:00 20.5° C bewölkt
Mi, 27.05. 14:00 20.9° C wolkenlos
Mi, 27.05. 8:00 12.3° C wolkig
Mi, 27.05. 2:00 6.8° C fast wolkenlos
Di, 26.05. 20:00 18.0° C wolkenlos
Di, 26.05. 14:00 17.8° C fast wolkenlos
Di, 26.05. 8:00 9.6° C wolkig
Ortszeit Temperatur Wetter
Do, 28.05. 6:30 11.2° C wolkig
Do, 28.05. 6:20 11.2° C wolkig
Do, 28.05. 6:10 11.1° C wolkig
Do, 28.05. 6:00 11.0° C wolkig
Do, 28.05. 5:50 11.0° C wolkig
Do, 28.05. 5:40 11.0° C bewölkt
Do, 28.05. 5:30 11.2° C bewölkt
Do, 28.05. 5:00 11.5° C bewölkt
Do, 28.05. 4:30 11.9° C bewölkt
Do, 28.05. 4:00 12.1° C bewölkt
Do, 28.05. 3:30 12.3° C leichter Regen
Ortszeit Relative Feuchte Sichtweite
Do, 28.05. 2:00 60% 50 km
Mi, 27.05. 20:00 38% >70 km
Mi, 27.05. 14:00 28% >70 km
Mi, 27.05. 8:00 71% 45 km
Mi, 27.05. 2:00 95% 35 km
Di, 26.05. 20:00 43% 65 km
Di, 26.05. 14:00 47% 50 km
Di, 26.05. 8:00 96% 9 km
Ortszeit Relative Feuchte Sichtweite
Do, 28.05. 6:30 95% 20 km
Do, 28.05. 6:20 95% -
Do, 28.05. 6:10 95% -
Do, 28.05. 6:00 95% 21 km
Do, 28.05. 5:50 95% -
Do, 28.05. 5:40 95% -
Do, 28.05. 5:30 95% 22 km
Do, 28.05. 5:00 92% 30 km
Do, 28.05. 4:30 92% 30 km
Do, 28.05. 4:00 91% 35 km
Do, 28.05. 3:30 94% 8 km
Ortszeit Niederschlagsmenge Niederschlagsart
Do, 28.05. 2:00 0.0 l/m2 in 6 Std. -
Mi, 27.05. 20:00 0.0 l/m2 in 12 Std. -
Mi, 27.05. 14:00 0.0 l/m2 in 6 Std. -
Mi, 27.05. 8:00 0.0 l/m2 in 12 Std. -
Mi, 27.05. 2:00 0.0 l/m2 in 6 Std. -
Di, 26.05. 20:00 0.0 l/m2 in 12 Std. -
Di, 26.05. 14:00 0.0 l/m2 in 6 Std. -
Di, 26.05. 8:00 0.1 l/m2 in 12 Std. -
Ortszeit Niederschlagsmenge Niederschlagsart
Do, 28.05. 6:30 0.0 l/m2 in 1 Std. -
Do, 28.05. 6:20 keine Meldung -
Do, 28.05. 6:10 keine Meldung -
Do, 28.05. 6:00 0.0 l/m2 in 1 Std. -
Do, 28.05. 5:50 keine Meldung -
Do, 28.05. 5:40 keine Meldung -
Do, 28.05. 5:30 0.0 l/m2 in 1 Std. -
Do, 28.05. 5:00 0.0 l/m2 in 1 Std. Regen
Do, 28.05. 4:30 0.0 l/m2 in 1 Std. -
Do, 28.05. 4:00 0.5 l/m2 in 1 Std. Regen
Do, 28.05. 3:30 0.3 l/m2 in 1 Std. -
Ortszeit Stärke Spitze Richtung
km/h Bft. km/h Grad Sektor
Do, 28.05. 2:00 13 3 28 360° N
Mi, 27.05. 20:00 7 2 29 310° NW
Mi, 27.05. 14:00 7 2 29 360° N
Mi, 27.05. 8:00 0 0 7 - -
Mi, 27.05. 2:00 2 1 17 250° W
Di, 26.05. 20:00 9 2 30 360° N
Di, 26.05. 14:00 13 3 31 30° NO
Di, 26.05. 8:00 4 1 14 310° NW
Ortszeit Stärke Spitze Richtung
km/h Bft. km/h Grad Sektor
Do, 28.05. 6:30 6 1 11 300° NW
Do, 28.05. 6:20 6 1 - 300° NW
Do, 28.05. 6:10 6 1 - 310° NW
Do, 28.05. 6:00 6 1 9 300° NW
Do, 28.05. 5:50 6 1 - 300° NW
Do, 28.05. 5:40 4 1 - 300° NW
Do, 28.05. 5:30 4 1 7 290° W
Do, 28.05. 5:00 6 1 11 360° N
Do, 28.05. 4:30 7 2 11 60° NO
Do, 28.05. 4:00 7 2 25 30° NO
Do, 28.05. 3:30 11 2 25 360° N
Ortszeit Untergrenze Bedeckung Gattung
total tief tief mittel hoch
Do, 28.05. 2:00 2100 m 8/8 8/8 - - -
Mi, 27.05. 20:00 2100 m 7/8 7/8 - - -
Mi, 27.05. 14:00 - 0/8 0/8 - - -
Mi, 27.05. 8:00 6900 m 6/8 2/8 - - -
Mi, 27.05. 2:00 10500 m 1/8 0/8 - - -
Di, 26.05. 20:00 - 0/8 0/8 - - -
Di, 26.05. 14:00 1350 m 1/8 1/8 - - -
Di, 26.05. 8:00 90 m 6/8 6/8 - - -
Ortszeit Bedeckungsgrad in Achtel und Wolkenuntergrenze
Do, 28.05. 6:30 1(2100m) 8(3600m) 8(4500m)
Do, 28.05. 6:20 1(2100m) 8(3600m) 8(4500m)
Do, 28.05. 6:10 1(2100m) 3(2700m) 8(3600m)
Do, 28.05. 6:00 1(1800m) 8(3600m) 8(4800m)
Do, 28.05. 5:50 1(1800m) 8(3600m) 8(4800m)
Do, 28.05. 5:40 1(1800m) 6(2700m) 7(3300m)
Do, 28.05. 5:30 5(2700m) 8(3300m)
Do, 28.05. 5:00 3(2100m) 5(2400m) 8(3000m)
Do, 28.05. 4:30 4(2100m) 7(2700m)
Do, 28.05. 4:00 5(1800m) 7(2100m) 7(2700m)
Do, 28.05. 3:30 2(960m) 5(1200m) 8(1500m)
Ortszeit Luftdruck NN (hPa) Tendenz (hPa in 3 Std.)
Do, 28.05. 2:00 1028 + 0,1
Mi, 27.05. 20:00 1028 - 1,1
Mi, 27.05. 14:00 1031 - 1,7
Mi, 27.05. 8:00 1034 + 0,3
Mi, 27.05. 2:00 1034 + 0,3
Di, 26.05. 20:00 1033 0,0
Di, 26.05. 14:00 1033 - 0,4
Di, 26.05. 8:00 1034 + 1,5
Ortszeit Luftdruck NN (hPa) Tendenz (hPa in 3 Std.)
Do, 28.05. 6:30 1029 + 0,3
Do, 28.05. 6:20 1029 keine Meldung
Do, 28.05. 6:10 1029 keine Meldung
Do, 28.05. 6:00 1029 + 0,3
Do, 28.05. 5:50 1029 keine Meldung
Do, 28.05. 5:40 1029 keine Meldung
Do, 28.05. 5:30 1029 + 0,2
Do, 28.05. 5:00 1029 + 0,4
Do, 28.05. 4:30 1028 0,0
Do, 28.05. 4:00 1029 + 0,3
Do, 28.05. 3:30 1029 + 0,7
Ortszeit Schneehöhe (cm)
Do, 28.05. 2:00 -
Mi, 27.05. 20:00 -
Mi, 27.05. 14:00 -
Mi, 27.05. 8:00 -
Mi, 27.05. 2:00 -
Di, 26.05. 20:00 -
Di, 26.05. 14:00 -
Di, 26.05. 8:00 -
Ortszeit Schneehöhe (cm)
Do, 28.05. 6:30 -
Do, 28.05. 6:20 -
Do, 28.05. 6:10 -
Do, 28.05. 6:00 -
Do, 28.05. 5:50 -
Do, 28.05. 5:40 -
Do, 28.05. 5:30 -
Do, 28.05. 5:00 -
Do, 28.05. 4:30 -
Do, 28.05. 4:00 -
Do, 28.05. 3:30 -
Link zu dieser Seite / Seite empfehlen

Das Wetter in ...